Huvudsida
METAR-TAF:

METAR-TAF

Flygplatser :

Palangas internationella flygplats

Palanga, Litauen

latitud: 55-55-12N, longitud: 021-03E, höjd: 10 m

Aktuellt väderrapport

Denna rapport gjordes för 23 minuter sedan, klockan 07:50 UTC
Vind 4 kt varierande vindriktning
Temperatur 15°C
Fuktighet 77%
Tryck 1019 hPa
Sikt 10 km eller mer
Inga moln under 1 500 m eller inga cumulonimbus

METAR: EYPA 290750Z VRB04KT CAVOK 15/11 Q1019

Tid: 11:13 (08:13 UTC)

Väderprognos

Denna rapport gjordes för 3 timmar och 13 minuter sedan, klockan 05:00 UTC
Prognos gäller från 29 kl. 06 UTC till 30 kl. 06 UTC
Vind 5 kt varierande vindriktning
Sikt: 9000 m
Temporärt
från 29 kl. 06 UTC till 29 kl. 18 UTC
Spridda moln på en höjd av 1000 ft

TAF: EYPA 290500Z 2906/3006 VRB05KT 9000 NSC TEMPO 2906/2918 SCT010

Aktuella väderrapporter och prognoser från 4000 flygplatser (METAR- och TAF-rapporter).

De tillgängliga stationerna syns som gula och röda prickar på kartan.

För musen över prickarna för att se namnen på stationerna.

Klicka sedan för att få väderrapporter och prognoser.

För att ändra kartan: Klicka på de gröna knapparna med ett svart kors på för att zooma in; den gröna knappen med ett streck på för att zooma ut; eller på de gröna pilarna för angränsande kartor.


METAR-TAF: